sensor_id;sensor_type;location;lat;lon;timestamp;P1;durP1;ratioP1;P2;durP2;ratioP2
56736;SDS011;42618;51.226;4.910;2023-03-01T00:01:08;9.23;;;5.82;;
56736;SDS011;42618;51.226;4.910;2023-03-01T00:03:35;9.32;;;5.70;;
56736;SDS011;42618;51.226;4.910;2023-03-01T00:06:02;11.45;;;5.65;;
56736;SDS011;42618;51.226;4.910;2023-03-01T00:08:29;10.13;;;6.35;;
56736;SDS011;42618;51.226;4.910;2023-03-01T00:11:12;23.35;;;8.00;;
56736;SDS011;42618;51.226;4.910;2023-03-01T00:13:40;27.33;;;10.15;;
56736;SDS011;42618;51.226;4.910;2023-03-01T00:16:11;21.73;;;8.13;;
56736;SDS011;42618;51.226;4.910;2023-03-01T00:18:39;12.50;;;6.47;;
56736;SDS011;42618;51.226;4.910;2023-03-01T00:21:05;9.00;;;5.63;;
56736;SDS011;42618;51.226;4.910;2023-03-01T00:23:36;13.82;;;6.45;;
56736;SDS011;42618;51.226;4.910;2023-03-01T00:26:05;27.00;;;9.80;;
56736;SDS011;42618;51.226;4.910;2023-03-01T00:28:32;37.65;;;11.15;;
56736;SDS011;42618;51.226;4.910;2023-03-01T00:31:05;43.00;;;11.55;;
56736;SDS011;42618;51.226;4.910;2023-03-01T00:33:32;27.00;;;9.15;;
56736;SDS011;42618;51.226;4.910;2023-03-01T00:35:59;16.85;;;7.25;;
56736;SDS011;42618;51.226;4.910;2023-03-01T00:38:26;15.65;;;6.95;;
56736;SDS011;42618;51.226;4.910;2023-03-01T00:40:52;22.10;;;7.90;;
56736;SDS011;42618;51.226;4.910;2023-03-01T00:43:20;20.30;;;7.40;;
56736;SDS011;42618;51.226;4.910;2023-03-01T00:45:47;21.90;;;8.27;;
56736;SDS011;42618;51.226;4.910;2023-03-01T00:48:14;21.77;;;8.93;;
56736;SDS011;42618;51.226;4.910;2023-03-01T00:50:40;13.68;;;6.43;;
56736;SDS011;42618;51.226;4.910;2023-03-01T00:53:07;14.30;;;6.35;;
56736;SDS011;42618;51.226;4.910;2023-03-01T00:55:34;16.10;;;6.75;;
56736;SDS011;42618;51.226;4.910;2023-03-01T00:58:02;12.32;;;6.05;;
56736;SDS011;42618;51.226;4.910;2023-03-01T01:00:28;11.60;;;5.88;;
56736;SDS011;42618;51.226;4.910;2023-03-01T01:02:55;10.20;;;5.47;;
56736;SDS011;42618;51.226;4.910;2023-03-01T01:05:21;9.85;;;5.55;;
56736;SDS011;42618;51.226;4.910;2023-03-01T01:07:48;9.95;;;5.50;;
56736;SDS011;42618;51.226;4.910;2023-03-01T01:10:15;9.60;;;5.57;;
56736;SDS011;42618;51.226;4.910;2023-03-01T01:12:46;8.73;;;5.50;;
56736;SDS011;42618;51.226;4.910;2023-03-01T01:15:13;11.68;;;6.05;;
56736;SDS011;42618;51.226;4.910;2023-03-01T01:17:40;13.13;;;6.65;;
56736;SDS011;42618;51.226;4.910;2023-03-01T01:20:07;16.10;;;6.93;;
56736;SDS011;42618;51.226;4.910;2023-03-01T01:22:34;14.93;;;7.13;;
56736;SDS011;42618;51.226;4.910;2023-03-01T01:25:00;23.35;;;7.53;;
56736;SDS011;42618;51.226;4.910;2023-03-01T01:27:27;15.25;;;6.55;;
56736;SDS011;42618;51.226;4.910;2023-03-01T01:29:53;16.83;;;7.78;;
56736;SDS011;42618;51.226;4.910;2023-03-01T01:32:20;21.95;;;7.78;;
56736;SDS011;42618;51.226;4.910;2023-03-01T01:34:46;33.25;;;9.77;;
56736;SDS011;42618;51.226;4.910;2023-03-01T01:37:13;41.00;;;13.00;;
56736;SDS011;42618;51.226;4.910;2023-03-01T01:39:40;35.15;;;11.18;;
56736;SDS011;42618;51.226;4.910;2023-03-01T01:42:09;25.98;;;9.27;;
56736;SDS011;42618;51.226;4.910;2023-03-01T01:44:39;21.98;;;8.57;;
56736;SDS011;42618;51.226;4.910;2023-03-01T01:47:07;14.75;;;6.53;;
56736;SDS011;42618;51.226;4.910;2023-03-01T01:54:36;43.05;;;12.32;;
56736;SDS011;42618;51.226;4.910;2023-03-01T01:57:06;60.63;;;16.90;;
56736;SDS011;42618;51.226;4.910;2023-03-01T01:59:33;43.85;;;11.50;;
56736;SDS011;42618;51.226;4.910;2023-03-01T02:02:02;34.00;;;11.17;;
56736;SDS011;42618;51.226;4.910;2023-03-01T02:04:29;32.42;;;10.07;;
56736;SDS011;42618;51.226;4.910;2023-03-01T02:07:01;24.35;;;8.25;;
56736;SDS011;42618;51.226;4.910;2023-03-01T02:09:29;39.50;;;11.95;;
56736;SDS011;42618;51.226;4.910;2023-03-01T02:11:56;56.83;;;15.95;;
56736;SDS011;42618;51.226;4.910;2023-03-01T02:14:23;54.25;;;16.27;;
56736;SDS011;42618;51.226;4.910;2023-03-01T02:16:50;55.75;;;15.98;;
56736;SDS011;42618;51.226;4.910;2023-03-01T02:19:23;51.30;;;13.75;;
56736;SDS011;42618;51.226;4.910;2023-03-01T02:22:02;37.95;;;12.95;;
56736;SDS011;42618;51.226;4.910;2023-03-01T02:27:18;24.98;;;9.85;;
56736;SDS011;42618;51.226;4.910;2023-03-01T02:29:48;23.92;;;10.45;;
56736;SDS011;42618;51.226;4.910;2023-03-01T02:32:15;33.47;;;12.00;;
56736;SDS011;42618;51.226;4.910;2023-03-01T02:34:42;29.45;;;11.68;;
56736;SDS011;42618;51.226;4.910;2023-03-01T02:37:11;32.28;;;11.98;;
56736;SDS011;42618;51.226;4.910;2023-03-01T02:39:40;20.83;;;9.88;;
56736;SDS011;42618;51.226;4.910;2023-03-01T02:42:10;16.95;;;8.57;;
56736;SDS011;42618;51.226;4.910;2023-03-01T02:44:37;14.23;;;7.95;;
56736;SDS011;42618;51.226;4.910;2023-03-01T02:47:04;14.50;;;8.45;;
56736;SDS011;42618;51.226;4.910;2023-03-01T02:55:03;14.25;;;8.00;;
56736;SDS011;42618;51.226;4.910;2023-03-01T02:57:33;12.82;;;7.97;;
56736;SDS011;42618;51.226;4.910;2023-03-01T03:00:10;13.30;;;7.53;;
56736;SDS011;42618;51.226;4.910;2023-03-01T03:02:37;15.93;;;7.85;;
56736;SDS011;42618;51.226;4.910;2023-03-01T03:05:17;13.90;;;7.80;;
56736;SDS011;42618;51.226;4.910;2023-03-01T03:07:45;33.80;;;12.38;;
56736;SDS011;42618;51.226;4.910;2023-03-01T03:10:13;63.20;;;14.88;;
56736;SDS011;42618;51.226;4.910;2023-03-01T03:12:41;46.05;;;13.93;;
56736;SDS011;42618;51.226;4.910;2023-03-01T03:15:08;35.72;;;12.85;;
56736;SDS011;42618;51.226;4.910;2023-03-01T03:20:03;33.80;;;12.50;;
56736;SDS011;42618;51.226;4.910;2023-03-01T03:24:56;45.90;;;14.73;;
56736;SDS011;42618;51.226;4.910;2023-03-01T03:27:23;29.80;;;11.82;;
56736;SDS011;42618;51.226;4.910;2023-03-01T03:29:49;18.20;;;8.73;;
56736;SDS011;42618;51.226;4.910;2023-03-01T03:32:16;23.92;;;9.55;;
56736;SDS011;42618;51.226;4.910;2023-03-01T03:34:42;21.63;;;9.57;;
56736;SDS011;42618;51.226;4.910;2023-03-01T03:37:09;36.58;;;13.55;;
56736;SDS011;42618;51.226;4.910;2023-03-01T03:39:55;23.88;;;10.30;;
56736;SDS011;42618;51.226;4.910;2023-03-01T03:42:22;18.85;;;9.10;;
56736;SDS011;42618;51.226;4.910;2023-03-01T03:44:49;52.00;;;16.25;;
56736;SDS011;42618;51.226;4.910;2023-03-01T03:47:15;63.80;;;18.45;;
56736;SDS011;42618;51.226;4.910;2023-03-01T03:49:42;30.52;;;12.38;;
56736;SDS011;42618;51.226;4.910;2023-03-01T03:52:09;42.30;;;14.80;;
56736;SDS011;42618;51.226;4.910;2023-03-01T03:54:40;18.58;;;8.80;;
56736;SDS011;42618;51.226;4.910;2023-03-01T03:57:07;15.40;;;8.07;;
56736;SDS011;42618;51.226;4.910;2023-03-01T03:59:33;13.23;;;7.63;;
56736;SDS011;42618;51.226;4.910;2023-03-01T04:02:00;12.27;;;7.32;;
56736;SDS011;42618;51.226;4.910;2023-03-01T04:04:26;12.57;;;7.22;;
56736;SDS011;42618;51.226;4.910;2023-03-01T04:06:53;20.17;;;10.07;;
56736;SDS011;42618;51.226;4.910;2023-03-01T04:09:19;43.67;;;16.95;;
56736;SDS011;42618;51.226;4.910;2023-03-01T04:11:46;21.98;;;10.23;;
56736;SDS011;42618;51.226;4.910;2023-03-01T04:14:13;21.75;;;8.77;;
56736;SDS011;42618;51.226;4.910;2023-03-01T04:16:39;13.02;;;6.57;;
56736;SDS011;42618;51.226;4.910;2023-03-01T04:19:06;11.15;;;6.53;;
56736;SDS011;42618;51.226;4.910;2023-03-01T04:21:32;13.60;;;5.57;;
56736;SDS011;42618;51.226;4.910;2023-03-01T04:23:59;9.70;;;5.60;;
56736;SDS011;42618;51.226;4.910;2023-03-01T04:26:26;15.20;;;6.82;;
56736;SDS011;42618;51.226;4.910;2023-03-01T04:28:53;10.70;;;6.43;;
56736;SDS011;42618;51.226;4.910;2023-03-01T04:31:20;15.48;;;6.72;;
56736;SDS011;42618;51.226;4.910;2023-03-01T04:33:48;12.18;;;5.72;;
56736;SDS011;42618;51.226;4.910;2023-03-01T04:36:18;9.65;;;5.75;;
56736;SDS011;42618;51.226;4.910;2023-03-01T04:38:45;10.07;;;5.45;;
56736;SDS011;42618;51.226;4.910;2023-03-01T04:41:15;13.10;;;5.68;;
56736;SDS011;42618;51.226;4.910;2023-03-01T04:43:42;9.60;;;5.85;;
56736;SDS011;42618;51.226;4.910;2023-03-01T04:46:10;13.52;;;6.25;;
56736;SDS011;42618;51.226;4.910;2023-03-01T04:48:41;10.75;;;6.03;;
56736;SDS011;42618;51.226;4.910;2023-03-01T04:51:08;11.05;;;5.95;;
56736;SDS011;42618;51.226;4.910;2023-03-01T04:53:34;12.65;;;5.93;;
56736;SDS011;42618;51.226;4.910;2023-03-01T04:56:02;9.82;;;5.95;;
56736;SDS011;42618;51.226;4.910;2023-03-01T04:58:29;15.25;;;8.13;;
56736;SDS011;42618;51.226;4.910;2023-03-01T05:00:56;12.75;;;7.28;;
56736;SDS011;42618;51.226;4.910;2023-03-01T05:03:22;12.98;;;7.00;;
56736;SDS011;42618;51.226;4.910;2023-03-01T05:05:49;16.88;;;8.45;;
56736;SDS011;42618;51.226;4.910;2023-03-01T05:08:16;18.23;;;8.73;;
56736;SDS011;42618;51.226;4.910;2023-03-01T05:10:53;18.50;;;8.93;;
56736;SDS011;42618;51.226;4.910;2023-03-01T05:13:20;15.60;;;7.82;;
56736;SDS011;42618;51.226;4.910;2023-03-01T05:15:48;16.60;;;8.93;;
56736;SDS011;42618;51.226;4.910;2023-03-01T05:18:15;15.75;;;8.02;;
56736;SDS011;42618;51.226;4.910;2023-03-01T05:20:42;13.25;;;6.80;;
56736;SDS011;42618;51.226;4.910;2023-03-01T05:23:08;10.27;;;5.68;;
56736;SDS011;42618;51.226;4.910;2023-03-01T05:25:35;8.95;;;5.57;;
56736;SDS011;42618;51.226;4.910;2023-03-01T05:28:15;8.18;;;5.13;;
56736;SDS011;42618;51.226;4.910;2023-03-01T05:30:41;10.10;;;5.43;;
56736;SDS011;42618;51.226;4.910;2023-03-01T05:33:08;9.23;;;5.18;;
56736;SDS011;42618;51.226;4.910;2023-03-01T05:35:41;7.80;;;4.68;;
56736;SDS011;42618;51.226;4.910;2023-03-01T05:40:35;10.35;;;6.40;;
56736;SDS011;42618;51.226;4.910;2023-03-01T05:43:01;13.57;;;6.28;;
56736;SDS011;42618;51.226;4.910;2023-03-01T05:45:31;10.90;;;6.30;;
56736;SDS011;42618;51.226;4.910;2023-03-01T05:48:01;10.23;;;6.40;;
56736;SDS011;42618;51.226;4.910;2023-03-01T05:50:28;11.02;;;6.43;;
56736;SDS011;42618;51.226;4.910;2023-03-01T05:52:59;10.93;;;5.95;;
56736;SDS011;42618;51.226;4.910;2023-03-01T05:55:26;12.13;;;6.60;;
56736;SDS011;42618;51.226;4.910;2023-03-01T05:57:54;11.40;;;5.72;;
56736;SDS011;42618;51.226;4.910;2023-03-01T06:00:21;14.35;;;6.90;;
56736;SDS011;42618;51.226;4.910;2023-03-01T06:02:51;10.85;;;6.25;;
56736;SDS011;42618;51.226;4.910;2023-03-01T06:05:19;10.73;;;6.15;;
56736;SDS011;42618;51.226;4.910;2023-03-01T06:07:46;11.13;;;6.22;;
56736;SDS011;42618;51.226;4.910;2023-03-01T06:10:13;10.65;;;6.30;;
56736;SDS011;42618;51.226;4.910;2023-03-01T06:12:40;14.03;;;7.27;;
56736;SDS011;42618;51.226;4.910;2023-03-01T06:15:07;13.52;;;6.60;;
56736;SDS011;42618;51.226;4.910;2023-03-01T06:17:36;12.30;;;6.40;;
56736;SDS011;42618;51.226;4.910;2023-03-01T06:22:30;13.48;;;7.45;;
56736;SDS011;42618;51.226;4.910;2023-03-01T06:24:57;16.35;;;7.40;;
56736;SDS011;42618;51.226;4.910;2023-03-01T06:27:23;14.55;;;6.70;;
56736;SDS011;42618;51.226;4.910;2023-03-01T06:29:50;11.93;;;6.70;;
56736;SDS011;42618;51.226;4.910;2023-03-01T06:32:16;10.98;;;6.32;;
56736;SDS011;42618;51.226;4.910;2023-03-01T06:34:43;14.93;;;7.25;;
56736;SDS011;42618;51.226;4.910;2023-03-01T06:37:10;12.10;;;7.07;;
56736;SDS011;42618;51.226;4.910;2023-03-01T06:39:37;12.00;;;7.00;;
56736;SDS011;42618;51.226;4.910;2023-03-01T06:42:03;12.45;;;7.00;;
56736;SDS011;42618;51.226;4.910;2023-03-01T06:44:30;14.00;;;7.75;;
56736;SDS011;42618;51.226;4.910;2023-03-01T06:46:56;13.52;;;7.43;;
56736;SDS011;42618;51.226;4.910;2023-03-01T06:49:23;11.50;;;7.55;;
56736;SDS011;42618;51.226;4.910;2023-03-01T06:51:50;11.40;;;7.72;;
56736;SDS011;42618;51.226;4.910;2023-03-01T06:54:16;13.02;;;7.47;;
56736;SDS011;42618;51.226;4.910;2023-03-01T06:56:46;13.73;;;6.68;;
56736;SDS011;42618;51.226;4.910;2023-03-01T06:59:12;11.45;;;6.85;;
56736;SDS011;42618;51.226;4.910;2023-03-01T07:01:39;10.70;;;6.88;;
56736;SDS011;42618;51.226;4.910;2023-03-01T07:04:06;12.38;;;6.68;;
56736;SDS011;42618;51.226;4.910;2023-03-01T07:06:32;12.32;;;6.15;;
56736;SDS011;42618;51.226;4.910;2023-03-01T07:08:59;11.25;;;5.95;;
56736;SDS011;42618;51.226;4.910;2023-03-01T07:11:25;10.30;;;5.72;;
56736;SDS011;42618;51.226;4.910;2023-03-01T07:13:52;11.55;;;6.32;;
56736;SDS011;42618;51.226;4.910;2023-03-01T07:16:19;13.15;;;7.07;;
56736;SDS011;42618;51.226;4.910;2023-03-01T07:18:46;16.33;;;7.32;;
56736;SDS011;42618;51.226;4.910;2023-03-01T07:21:13;14.52;;;7.18;;
56736;SDS011;42618;51.226;4.910;2023-03-01T07:23:40;13.00;;;6.72;;
56736;SDS011;42618;51.226;4.910;2023-03-01T07:26:07;11.68;;;6.97;;
56736;SDS011;42618;51.226;4.910;2023-03-01T07:28:33;11.75;;;6.45;;
56736;SDS011;42618;51.226;4.910;2023-03-01T07:31:05;14.90;;;6.57;;
56736;SDS011;42618;51.226;4.910;2023-03-01T07:33:32;15.07;;;6.53;;
56736;SDS011;42618;51.226;4.910;2023-03-01T07:35:59;15.50;;;5.90;;
56736;SDS011;42618;51.226;4.910;2023-03-01T07:38:27;13.90;;;6.00;;
56736;SDS011;42618;51.226;4.910;2023-03-01T07:40:57;11.25;;;5.60;;
56736;SDS011;42618;51.226;4.910;2023-03-01T07:43:23;10.52;;;6.18;;
56736;SDS011;42618;51.226;4.910;2023-03-01T07:45:50;11.32;;;5.97;;
56736;SDS011;42618;51.226;4.910;2023-03-01T07:48:16;10.38;;;5.20;;
56736;SDS011;42618;51.226;4.910;2023-03-01T07:50:43;11.95;;;5.75;;
56736;SDS011;42618;51.226;4.910;2023-03-01T07:53:10;11.55;;;6.18;;
56736;SDS011;42618;51.226;4.910;2023-03-01T07:55:36;15.20;;;6.13;;
56736;SDS011;42618;51.226;4.910;2023-03-01T07:58:03;12.00;;;6.00;;
56736;SDS011;42618;51.226;4.910;2023-03-01T08:00:30;12.45;;;5.97;;
56736;SDS011;42618;51.226;4.910;2023-03-01T08:03:00;12.18;;;6.25;;
56736;SDS011;42618;51.226;4.910;2023-03-01T08:05:27;10.27;;;5.82;;
56736;SDS011;42618;51.226;4.910;2023-03-01T08:07:54;13.50;;;6.10;;
56736;SDS011;42618;51.226;4.910;2023-03-01T08:10:21;11.07;;;5.35;;
56736;SDS011;42618;51.226;4.910;2023-03-01T08:12:50;9.38;;;6.15;;
56736;SDS011;42618;51.226;4.910;2023-03-01T08:15:17;14.52;;;5.57;;
56736;SDS011;42618;51.226;4.910;2023-03-01T08:17:45;13.32;;;6.53;;
56736;SDS011;42618;51.226;4.910;2023-03-01T08:20:11;11.40;;;6.13;;
56736;SDS011;42618;51.226;4.910;2023-03-01T08:22:39;10.10;;;5.88;;
56736;SDS011;42618;51.226;4.910;2023-03-01T08:25:05;11.48;;;6.40;;
56736;SDS011;42618;51.226;4.910;2023-03-01T08:27:32;9.00;;;5.63;;
56736;SDS011;42618;51.226;4.910;2023-03-01T08:29:59;10.00;;;5.88;;
56736;SDS011;42618;51.226;4.910;2023-03-01T08:32:25;11.65;;;5.78;;
56736;SDS011;42618;51.226;4.910;2023-03-01T08:34:52;11.85;;;5.95;;
56736;SDS011;42618;51.226;4.910;2023-03-01T08:37:19;11.80;;;6.05;;
56736;SDS011;42618;51.226;4.910;2023-03-01T08:39:46;15.30;;;5.82;;
56736;SDS011;42618;51.226;4.910;2023-03-01T08:42:12;10.60;;;5.53;;
56736;SDS011;42618;51.226;4.910;2023-03-01T08:44:39;11.15;;;5.60;;
56736;SDS011;42618;51.226;4.910;2023-03-01T08:47:06;9.15;;;5.05;;
56736;SDS011;42618;51.226;4.910;2023-03-01T08:49:32;11.45;;;5.53;;
56736;SDS011;42618;51.226;4.910;2023-03-01T08:51:59;11.07;;;5.43;;
56736;SDS011;42618;51.226;4.910;2023-03-01T08:54:25;10.68;;;5.15;;
56736;SDS011;42618;51.226;4.910;2023-03-01T08:56:52;11.88;;;5.57;;
56736;SDS011;42618;51.226;4.910;2023-03-01T08:59:18;10.38;;;5.18;;
56736;SDS011;42618;51.226;4.910;2023-03-01T09:01:45;13.93;;;5.78;;
56736;SDS011;42618;51.226;4.910;2023-03-01T09:04:12;9.52;;;5.78;;
56736;SDS011;42618;51.226;4.910;2023-03-01T09:06:39;7.57;;;4.03;;
56736;SDS011;42618;51.226;4.910;2023-03-01T09:09:06;9.07;;;4.45;;
56736;SDS011;42618;51.226;4.910;2023-03-01T09:11:33;11.15;;;5.93;;
56736;SDS011;42618;51.226;4.910;2023-03-01T09:13:59;9.77;;;5.78;;
56736;SDS011;42618;51.226;4.910;2023-03-01T09:16:26;12.00;;;5.30;;
56736;SDS011;42618;51.226;4.910;2023-03-01T09:18:54;7.85;;;4.57;;
56736;SDS011;42618;51.226;4.910;2023-03-01T09:21:21;11.15;;;5.80;;
56736;SDS011;42618;51.226;4.910;2023-03-01T09:24:06;12.05;;;6.90;;
56736;SDS011;42618;51.226;4.910;2023-03-01T09:26:32;8.27;;;4.25;;
56736;SDS011;42618;51.226;4.910;2023-03-01T09:28:59;11.13;;;6.82;;
56736;SDS011;42618;51.226;4.910;2023-03-01T09:31:26;9.57;;;5.45;;
56736;SDS011;42618;51.226;4.910;2023-03-01T09:33:53;11.23;;;5.43;;
56736;SDS011;42618;51.226;4.910;2023-03-01T09:36:21;11.43;;;5.60;;
56736;SDS011;42618;51.226;4.910;2023-03-01T09:38:48;9.80;;;5.47;;
56736;SDS011;42618;51.226;4.910;2023-03-01T09:43:45;11.13;;;6.35;;
56736;SDS011;42618;51.226;4.910;2023-03-01T09:46:13;11.05;;;5.50;;
56736;SDS011;42618;51.226;4.910;2023-03-01T09:51:23;9.40;;;5.53;;
56736;SDS011;42618;51.226;4.910;2023-03-01T09:53:52;11.45;;;4.82;;
56736;SDS011;42618;51.226;4.910;2023-03-01T09:56:22;9.23;;;5.50;;
56736;SDS011;42618;51.226;4.910;2023-03-01T09:58:53;9.73;;;5.38;;
56736;SDS011;42618;51.226;4.910;2023-03-01T10:01:32;10.30;;;5.70;;
56736;SDS011;42618;51.226;4.910;2023-03-01T10:06:28;8.77;;;5.22;;
56736;SDS011;42618;51.226;4.910;2023-03-01T10:09:18;10.43;;;5.30;;
56736;SDS011;42618;51.226;4.910;2023-03-01T10:11:46;11.27;;;6.53;;
56736;SDS011;42618;51.226;4.910;2023-03-01T10:14:28;11.10;;;5.75;;
56736;SDS011;42618;51.226;4.910;2023-03-01T10:19:31;7.00;;;4.63;;
56736;SDS011;42618;51.226;4.910;2023-03-01T10:22:02;8.50;;;5.07;;
56736;SDS011;42618;51.226;4.910;2023-03-01T10:24:30;9.10;;;5.50;;
56736;SDS011;42618;51.226;4.910;2023-03-01T10:26:58;8.27;;;4.35;;
56736;SDS011;42618;51.226;4.910;2023-03-01T10:29:37;10.85;;;5.00;;
56736;SDS011;42618;51.226;4.910;2023-03-01T10:32:05;8.48;;;4.70;;
56736;SDS011;42618;51.226;4.910;2023-03-01T10:34:34;13.65;;;6.38;;
56736;SDS011;42618;51.226;4.910;2023-03-01T10:37:11;10.40;;;5.07;;
56736;SDS011;42618;51.226;4.910;2023-03-01T10:42:05;9.18;;;4.50;;
56736;SDS011;42618;51.226;4.910;2023-03-01T10:44:46;9.40;;;5.03;;
56736;SDS011;42618;51.226;4.910;2023-03-01T10:49:39;11.77;;;5.82;;
56736;SDS011;42618;51.226;4.910;2023-03-01T10:52:18;8.13;;;4.50;;
56736;SDS011;42618;51.226;4.910;2023-03-01T10:54:55;12.18;;;6.03;;
56736;SDS011;42618;51.226;4.910;2023-03-01T10:57:30;10.80;;;6.10;;
56736;SDS011;42618;51.226;4.910;2023-03-01T11:02:39;8.77;;;5.30;;
56736;SDS011;42618;51.226;4.910;2023-03-01T11:07:48;9.70;;;5.10;;
56736;SDS011;42618;51.226;4.910;2023-03-01T11:10:17;9.43;;;5.07;;
56736;SDS011;42618;51.226;4.910;2023-03-01T11:12:43;10.68;;;4.38;;
56736;SDS011;42618;51.226;4.910;2023-03-01T11:15:19;8.00;;;4.90;;
56736;SDS011;42618;51.226;4.910;2023-03-01T11:17:47;11.95;;;5.35;;
56736;SDS011;42618;51.226;4.910;2023-03-01T11:22:56;10.32;;;5.63;;
56736;SDS011;42618;51.226;4.910;2023-03-01T11:25:25;10.45;;;5.40;;
56736;SDS011;42618;51.226;4.910;2023-03-01T11:27:52;8.60;;;5.07;;
56736;SDS011;42618;51.226;4.910;2023-03-01T11:30:21;9.57;;;4.97;;
56736;SDS011;42618;51.226;4.910;2023-03-01T11:35:35;10.10;;;5.35;;
56736;SDS011;42618;51.226;4.910;2023-03-01T11:40:34;7.68;;;4.93;;
56736;SDS011;42618;51.226;4.910;2023-03-01T11:43:11;7.90;;;4.90;;
56736;SDS011;42618;51.226;4.910;2023-03-01T11:45:46;13.40;;;5.55;;
56736;SDS011;42618;51.226;4.910;2023-03-01T11:50:49;9.30;;;4.82;;
56736;SDS011;42618;51.226;4.910;2023-03-01T12:03:17;10.32;;;5.30;;
56736;SDS011;42618;51.226;4.910;2023-03-01T12:06:05;7.97;;;5.55;;
56736;SDS011;42618;51.226;4.910;2023-03-01T12:19:26;8.85;;;5.68;;
56736;SDS011;42618;51.226;4.910;2023-03-01T12:22:02;9.45;;;6.25;;
56736;SDS011;42618;51.226;4.910;2023-03-01T12:30:25;9.82;;;5.93;;
56736;SDS011;42618;51.226;4.910;2023-03-01T12:35:26;11.98;;;6.28;;
56736;SDS011;42618;51.226;4.910;2023-03-01T12:38:06;9.30;;;5.85;;
56736;SDS011;42618;51.226;4.910;2023-03-01T12:46:10;8.30;;;5.25;;
56736;SDS011;42618;51.226;4.910;2023-03-01T12:51:08;9.40;;;5.40;;
56736;SDS011;42618;51.226;4.910;2023-03-01T12:53:50;9.98;;;5.78;;
56736;SDS011;42618;51.226;4.910;2023-03-01T12:56:18;9.85;;;6.15;;
56736;SDS011;42618;51.226;4.910;2023-03-01T12:58:57;11.18;;;5.43;;
56736;SDS011;42618;51.226;4.910;2023-03-01T13:01:40;11.15;;;5.97;;
56736;SDS011;42618;51.226;4.910;2023-03-01T13:06:47;9.63;;;5.93;;
56736;SDS011;42618;51.226;4.910;2023-03-01T13:09:20;10.13;;;5.65;;
56736;SDS011;42618;51.226;4.910;2023-03-01T13:11:49;12.32;;;5.90;;
56736;SDS011;42618;51.226;4.910;2023-03-01T13:16:52;13.20;;;7.18;;
56736;SDS011;42618;51.226;4.910;2023-03-01T13:19:20;11.48;;;6.80;;
56736;SDS011;42618;51.226;4.910;2023-03-01T13:29:45;10.30;;;6.13;;
56736;SDS011;42618;51.226;4.910;2023-03-01T13:37:45;9.55;;;6.57;;
56736;SDS011;42618;51.226;4.910;2023-03-01T13:42:45;7.18;;;5.88;;
56736;SDS011;42618;51.226;4.910;2023-03-01T13:45:40;10.23;;;6.18;;
56736;SDS011;42618;51.226;4.910;2023-03-01T13:48:09;8.18;;;5.88;;
56736;SDS011;42618;51.226;4.910;2023-03-01T13:50:44;9.38;;;6.30;;
56736;SDS011;42618;51.226;4.910;2023-03-01T13:53:14;12.20;;;5.72;;
56736;SDS011;42618;51.226;4.910;2023-03-01T13:55:43;8.60;;;5.70;;
56736;SDS011;42618;51.226;4.910;2023-03-01T13:58:22;10.63;;;5.95;;
56736;SDS011;42618;51.226;4.910;2023-03-01T14:00:56;9.02;;;5.97;;
56736;SDS011;42618;51.226;4.910;2023-03-01T14:03:23;8.65;;;6.38;;
56736;SDS011;42618;51.226;4.910;2023-03-01T14:05:58;8.47;;;5.10;;
56736;SDS011;42618;51.226;4.910;2023-03-01T14:08:39;8.38;;;5.38;;
56736;SDS011;42618;51.226;4.910;2023-03-01T14:18:29;7.70;;;4.88;;
56736;SDS011;42618;51.226;4.910;2023-03-01T14:21:00;7.40;;;4.93;;
56736;SDS011;42618;51.226;4.910;2023-03-01T14:23:27;11.13;;;5.00;;
56736;SDS011;42618;51.226;4.910;2023-03-01T14:25:54;8.63;;;5.22;;
56736;SDS011;42618;51.226;4.910;2023-03-01T14:28:25;10.75;;;5.13;;
56736;SDS011;42618;51.226;4.910;2023-03-01T14:30:53;7.05;;;4.93;;
56736;SDS011;42618;51.226;4.910;2023-03-01T14:33:22;6.97;;;4.63;;
56736;SDS011;42618;51.226;4.910;2023-03-01T14:35:53;8.15;;;5.15;;
56736;SDS011;42618;51.226;4.910;2023-03-01T14:38:21;9.07;;;5.07;;
56736;SDS011;42618;51.226;4.910;2023-03-01T14:43:16;7.65;;;4.93;;
56736;SDS011;42618;51.226;4.910;2023-03-01T14:45:48;7.05;;;4.95;;
56736;SDS011;42618;51.226;4.910;2023-03-01T14:48:15;7.07;;;5.25;;
56736;SDS011;42618;51.226;4.910;2023-03-01T14:50:42;7.22;;;4.60;;
56736;SDS011;42618;51.226;4.910;2023-03-01T14:53:15;8.43;;;5.43;;
56736;SDS011;42618;51.226;4.910;2023-03-01T14:55:44;8.50;;;5.32;;
56736;SDS011;42618;51.226;4.910;2023-03-01T14:58:12;6.63;;;4.28;;
56736;SDS011;42618;51.226;4.910;2023-03-01T15:00:42;7.45;;;4.75;;
56736;SDS011;42618;51.226;4.910;2023-03-01T15:03:14;7.55;;;4.95;;
56736;SDS011;42618;51.226;4.910;2023-03-01T15:05:44;6.88;;;4.72;;
56736;SDS011;42618;51.226;4.910;2023-03-01T15:08:16;9.77;;;7.55;;
56736;SDS011;42618;51.226;4.910;2023-03-01T15:10:54;17.05;;;7.38;;
56736;SDS011;42618;51.226;4.910;2023-03-01T15:13:23;7.68;;;4.72;;
56736;SDS011;42618;51.226;4.910;2023-03-01T15:15:50;7.75;;;5.05;;
56736;SDS011;42618;51.226;4.910;2023-03-01T15:20:44;7.85;;;4.90;;
56736;SDS011;42618;51.226;4.910;2023-03-01T15:23:17;8.40;;;5.30;;
56736;SDS011;42618;51.226;4.910;2023-03-01T15:25:44;9.70;;;5.18;;
56736;SDS011;42618;51.226;4.910;2023-03-01T15:28:12;6.30;;;4.63;;
56736;SDS011;42618;51.226;4.910;2023-03-01T15:30:44;6.20;;;4.15;;
56736;SDS011;42618;51.226;4.910;2023-03-01T15:35:50;12.20;;;5.40;;
56736;SDS011;42618;51.226;4.910;2023-03-01T15:40:51;7.57;;;5.18;;
56736;SDS011;42618;51.226;4.910;2023-03-01T15:43:37;6.60;;;4.88;;
56736;SDS011;42618;51.226;4.910;2023-03-01T15:46:04;8.85;;;5.03;;
56736;SDS011;42618;51.226;4.910;2023-03-01T15:48:30;8.20;;;4.80;;
56736;SDS011;42618;51.226;4.910;2023-03-01T15:50:58;6.13;;;4.85;;
56736;SDS011;42618;51.226;4.910;2023-03-01T15:53:25;7.95;;;4.95;;
56736;SDS011;42618;51.226;4.910;2023-03-01T15:55:53;5.85;;;4.72;;
56736;SDS011;42618;51.226;4.910;2023-03-01T15:58:21;12.15;;;6.43;;
56736;SDS011;42618;51.226;4.910;2023-03-01T16:00:48;11.50;;;5.88;;
56736;SDS011;42618;51.226;4.910;2023-03-01T16:03:27;7.13;;;4.93;;
56736;SDS011;42618;51.226;4.910;2023-03-01T16:05:54;7.43;;;5.50;;
56736;SDS011;42618;51.226;4.910;2023-03-01T16:08:21;9.05;;;5.00;;
56736;SDS011;42618;51.226;4.910;2023-03-01T16:10:48;6.90;;;4.35;;
56736;SDS011;42618;51.226;4.910;2023-03-01T16:13:17;8.32;;;5.00;;
56736;SDS011;42618;51.226;4.910;2023-03-01T16:15:44;7.10;;;4.73;;
56736;SDS011;42618;51.226;4.910;2023-03-01T16:18:10;14.27;;;7.05;;
56736;SDS011;42618;51.226;4.910;2023-03-01T16:20:38;16.33;;;9.23;;
56736;SDS011;42618;51.226;4.910;2023-03-01T16:23:05;11.80;;;5.50;;
56736;SDS011;42618;51.226;4.910;2023-03-01T16:25:32;9.00;;;5.50;;
56736;SDS011;42618;51.226;4.910;2023-03-01T16:27:59;7.27;;;4.90;;
56736;SDS011;42618;51.226;4.910;2023-03-01T16:30:30;8.88;;;5.82;;
56736;SDS011;42618;51.226;4.910;2023-03-01T16:32:57;9.10;;;4.95;;
56736;SDS011;42618;51.226;4.910;2023-03-01T16:35:24;8.02;;;4.95;;
56736;SDS011;42618;51.226;4.910;2023-03-01T16:37:51;7.63;;;5.25;;
56736;SDS011;42618;51.226;4.910;2023-03-01T16:40:21;7.63;;;4.70;;
56736;SDS011;42618;51.226;4.910;2023-03-01T16:42:48;9.10;;;5.38;;
56736;SDS011;42618;51.226;4.910;2023-03-01T16:45:16;8.98;;;5.20;;
56736;SDS011;42618;51.226;4.910;2023-03-01T16:47:50;8.05;;;4.95;;
56736;SDS011;42618;51.226;4.910;2023-03-01T16:50:20;12.23;;;5.43;;
56736;SDS011;42618;51.226;4.910;2023-03-01T16:52:47;7.45;;;4.80;;
56736;SDS011;42618;51.226;4.910;2023-03-01T16:55:13;9.77;;;5.15;;
56736;SDS011;42618;51.226;4.910;2023-03-01T16:57:40;16.10;;;4.95;;